createdAt,value
2022-12-16T00:00:02.611Z,1003.7
2022-12-16T00:01:07.184Z,1003.7
2022-12-16T00:02:10.895Z,1003.7
2022-12-16T00:03:14.240Z,1003.7
2022-12-16T00:04:17.452Z,1003.7
2022-12-16T00:05:20.889Z,1003.7
2022-12-16T00:06:23.725Z,1003.7
2022-12-16T00:07:26.229Z,1003.7
2022-12-16T00:08:28.810Z,1003.7
2022-12-16T00:09:32.157Z,1003.7
2022-12-16T00:10:34.997Z,1003.7
2022-12-16T00:11:37.211Z,1003.7
2022-12-16T00:12:39.629Z,1003.7
2022-12-16T00:13:42.396Z,1003.7
2022-12-16T00:14:45.115Z,1003.7
2022-12-16T00:15:48.729Z,1003.7
2022-12-16T00:16:55.580Z,1003.8
2022-12-16T00:17:58.626Z,1003.7
2022-12-16T00:19:01.293Z,1003.7
2022-12-16T00:20:04.175Z,1003.7
2022-12-16T00:21:06.888Z,1003.8
2022-12-16T00:22:10.479Z,1003.7
2022-12-16T00:23:12.906Z,1003.8
2022-12-16T00:24:15.206Z,1003.7
2022-12-16T00:25:18.811Z,1003.8
2022-12-16T00:26:20.739Z,1003.8
2022-12-16T00:27:23.186Z,1003.8
2022-12-16T00:28:26.637Z,1003.8
2022-12-16T00:29:29.686Z,1003.8
2022-12-16T00:30:32.028Z,1003.8
2022-12-16T00:31:35.907Z,1003.8
2022-12-16T00:32:40.635Z,1003.9
2022-12-16T00:33:43.059Z,1003.9
2022-12-16T00:34:46.033Z,1003.8
2022-12-16T00:35:49.743Z,1003.9
2022-12-16T00:36:56.853Z,1003.9
2022-12-16T00:37:59.707Z,1003.9
2022-12-16T00:39:02.407Z,1003.9
2022-12-16T00:40:06.403Z,1003.9
2022-12-16T00:41:10.076Z,1003.9
2022-12-16T00:42:13.428Z,1003.9
2022-12-16T00:43:15.847Z,1003.9
2022-12-16T00:44:18.897Z,1003.9
2022-12-16T00:45:22.289Z,1003.9
2022-12-16T00:46:25.898Z,1003.9
2022-12-16T00:47:28.588Z,1003.9
2022-12-16T00:48:32.953Z,1003.9
2022-12-16T00:49:36.030Z,1003.9
2022-12-16T00:50:39.006Z,1003.9
2022-12-16T00:51:42.164Z,1004
2022-12-16T00:52:45.549Z,1004
2022-12-16T00:53:48.122Z,1004
2022-12-16T00:54:52.141Z,1004
2022-12-16T00:55:57.953Z,1004
2022-12-16T00:57:00.731Z,1004
2022-12-16T00:58:03.777Z,1004
2022-12-16T00:59:06.635Z,1004
2022-12-16T01:00:10.649Z,1003.9
2022-12-16T01:01:13.486Z,1004
2022-12-16T01:02:16.958Z,1004.1
2022-12-16T01:03:22.664Z,1004.1
2022-12-16T01:04:27.590Z,1004.1
2022-12-16T01:05:30.838Z,1004.1
2022-12-16T01:06:33.966Z,1004.1
2022-12-16T01:07:37.028Z,1004.1
2022-12-16T01:08:39.887Z,1004.1
2022-12-16T01:09:42.960Z,1004.2
2022-12-16T01:10:46.041Z,1004.2
2022-12-16T01:11:48.466Z,1004.2
2022-12-16T01:12:51.165Z,1004.2
2022-12-16T01:13:55.746Z,1004.2
2022-12-16T01:14:59.464Z,1004.2
2022-12-16T01:16:02.812Z,1004.2
2022-12-16T01:17:06.260Z,1004.3
2022-12-16T01:18:08.942Z,1004.3
2022-12-16T01:19:12.021Z,1004.3
2022-12-16T01:20:16.415Z,1004.3
2022-12-16T01:21:19.472Z,1004.3
2022-12-16T01:22:21.696Z,1004.3
2022-12-16T01:23:24.257Z,1004.3
2022-12-16T01:24:27.047Z,1004.3
2022-12-16T01:25:29.535Z,1004.3
2022-12-16T01:26:32.374Z,1004.3
2022-12-16T01:27:35.084Z,1004.3
2022-12-16T01:28:37.810Z,1004.3
2022-12-16T01:29:40.784Z,1004.3
2022-12-16T01:30:43.762Z,1004.3
2022-12-16T01:31:46.361Z,1004.3
2022-12-16T01:32:49.136Z,1004.3
2022-12-16T01:33:54.285Z,1004.3
2022-12-16T01:34:58.065Z,1004.3
2022-12-16T01:36:02.356Z,1004.3
2022-12-16T01:37:05.785Z,1004.3
2022-12-16T01:38:08.387Z,1004.3
2022-12-16T01:39:11.432Z,1004.3
2022-12-16T01:40:13.575Z,1004.3
2022-12-16T01:41:16.915Z,1004.2
2022-12-16T01:42:19.912Z,1004.3
2022-12-16T01:43:23.436Z,1004.3
2022-12-16T01:44:26.292Z,1004.3
2022-12-16T01:45:29.182Z,1004.3
2022-12-16T01:46:32.792Z,1004.3
2022-12-16T01:47:35.577Z,1004.3
2022-12-16T01:48:38.058Z,1004.3
2022-12-16T01:49:40.504Z,1004.3
2022-12-16T01:50:43.491Z,1004.3
2022-12-16T01:51:55.624Z,1004.3
2022-12-16T01:52:59.236Z,1004.3
2022-12-16T01:54:01.463Z,1004.3
2022-12-16T01:55:04.441Z,1004.3
2022-12-16T01:56:07.148Z,1004.3
2022-12-16T01:57:10.473Z,1004.3
2022-12-16T01:58:13.793Z,1004.3
2022-12-16T01:59:16.627Z,1004.3
2022-12-16T02:00:19.643Z,1004.3
2022-12-16T02:01:22.089Z,1004.4
2022-12-16T02:02:25.532Z,1004.4
2022-12-16T02:03:29.672Z,1004.4
2022-12-16T02:04:34.185Z,1004.4
2022-12-16T02:05:36.638Z,1004.4
2022-12-16T02:06:39.208Z,1004.4
2022-12-16T02:07:43.003Z,1004.4
2022-12-16T02:08:46.134Z,1004.5
2022-12-16T02:09:48.917Z,1004.4
2022-12-16T02:10:55.623Z,1004.5
2022-12-16T02:11:58.191Z,1004.5
2022-12-16T02:13:00.769Z,1004.5
2022-12-16T02:14:03.466Z,1004.5
2022-12-16T02:15:06.034Z,1004.5
2022-12-16T02:16:16.922Z,1004.5
2022-12-16T02:17:20.500Z,1004.5
2022-12-16T02:18:23.370Z,1004.6
2022-12-16T02:19:25.898Z,1004.5
2022-12-16T02:20:29.022Z,1004.5
2022-12-16T02:21:32.127Z,1004.5
2022-12-16T02:22:35.269Z,1004.6
2022-12-16T02:23:39.486Z,1004.6
2022-12-16T02:24:42.192Z,1004.6
2022-12-16T02:25:44.607Z,1004.6
2022-12-16T02:26:47.305Z,1004.6
2022-12-16T02:27:49.730Z,1004.6
2022-12-16T02:28:56.012Z,1004.6
2022-12-16T02:29:58.157Z,1004.6
2022-12-16T02:31:01.969Z,1004.6
2022-12-16T02:32:05.752Z,1004.7
2022-12-16T02:33:08.903Z,1004.6
2022-12-16T02:34:11.719Z,1004.6
2022-12-16T02:35:14.099Z,1004.6
2022-12-16T02:36:16.612Z,1004.6
2022-12-16T02:37:19.612Z,1004.7
2022-12-16T02:38:22.459Z,1004.7
2022-12-16T02:39:26.501Z,1004.7
2022-12-16T02:40:29.725Z,1004.7
2022-12-16T02:41:32.207Z,1004.6
2022-12-16T02:42:35.606Z,1004.7
2022-12-16T02:43:38.824Z,1004.8
2022-12-16T02:44:42.069Z,1004.7
2022-12-16T02:45:45.041Z,1004.7
2022-12-16T02:46:48.722Z,1004.7
2022-12-16T02:47:52.244Z,1004.7
2022-12-16T02:48:56.597Z,1004.7
2022-12-16T02:49:59.370Z,1004.7
2022-12-16T02:51:02.410Z,1004.8
2022-12-16T02:52:04.825Z,1004.8
2022-12-16T02:53:07.652Z,1004.7
2022-12-16T02:54:10.661Z,1004.7
2022-12-16T02:55:14.736Z,1004.7
2022-12-16T02:56:17.503Z,1004.7
2022-12-16T02:57:19.441Z,1004.7
2022-12-16T02:58:22.212Z,1004.7
2022-12-16T02:59:25.359Z,1004.7
2022-12-16T03:00:28.748Z,1004.7
2022-12-16T03:01:32.133Z,1004.7
2022-12-16T03:02:35.979Z,1004.7
2022-12-16T03:03:38.715Z,1004.7
2022-12-16T03:04:42.549Z,1004.7
2022-12-16T03:05:45.601Z,1004.7
2022-12-16T03:06:48.950Z,1004.7
2022-12-16T03:07:52.195Z,1004.7
2022-12-16T03:08:55.287Z,1004.7
2022-12-16T03:09:58.045Z,1004.7
2022-12-16T03:11:01.887Z,1004.7
2022-12-16T03:12:04.209Z,1004.7
2022-12-16T03:13:06.772Z,1004.7
2022-12-16T03:14:08.915Z,1004.6
2022-12-16T03:15:11.405Z,1004.6
2022-12-16T03:16:14.739Z,1004.7
2022-12-16T03:17:18.040Z,1004.7
2022-12-16T03:18:21.089Z,1004.7
2022-12-16T03:19:24.227Z,1004.7
2022-12-16T03:20:27.479Z,1004.7
2022-12-16T03:21:30.058Z,1004.7
2022-12-16T03:22:32.551Z,1004.7
2022-12-16T03:23:36.205Z,1004.7
2022-12-16T03:24:39.111Z,1004.7
2022-12-16T03:25:42.433Z,1004.8
2022-12-16T03:26:46.611Z,1004.7
2022-12-16T03:27:49.378Z,1004.7
2022-12-16T03:28:51.782Z,1004.7
2022-12-16T03:29:54.344Z,1004.7
2022-12-16T03:30:56.531Z,1004.7
2022-12-16T03:31:59.327Z,1004.8
2022-12-16T03:33:02.083Z,1004.8
2022-12-16T03:34:05.597Z,1004.8
2022-12-16T03:35:08.947Z,1004.8
2022-12-16T03:36:11.811Z,1004.8
2022-12-16T03:37:13.944Z,1004.8
2022-12-16T03:38:17.085Z,1004.8
2022-12-16T03:39:19.881Z,1004.8
2022-12-16T03:40:22.336Z,1004.8
2022-12-16T03:41:25.119Z,1004.8
2022-12-16T03:42:29.577Z,1004.8
2022-12-16T03:43:33.864Z,1004.8
2022-12-16T03:44:37.644Z,1004.8
2022-12-16T03:45:40.799Z,1004.8
2022-12-16T03:46:43.155Z,1004.8
2022-12-16T03:47:46.760Z,1004.8
2022-12-16T03:48:49.613Z,1004.8
2022-12-16T03:49:52.667Z,1004.8
2022-12-16T03:50:56.034Z,1004.8
2022-12-16T03:51:58.561Z,1004.8
2022-12-16T03:53:01.732Z,1004.8
2022-12-16T03:54:04.579Z,1004.8
2022-12-16T03:55:07.903Z,1004.8
2022-12-16T03:56:10.395Z,1004.8
2022-12-16T03:57:16.102Z,1004.8
2022-12-16T03:58:20.213Z,1004.8
2022-12-16T03:59:22.706Z,1004.7
2022-12-16T04:00:25.494Z,1004.7
2022-12-16T04:01:29.222Z,1004.8
2022-12-16T04:02:33.205Z,1004.7
2022-12-16T04:03:38.111Z,1004.7
2022-12-16T04:04:41.164Z,1004.7
2022-12-16T04:05:44.032Z,1004.7
2022-12-16T04:06:46.880Z,1004.7
2022-12-16T04:07:49.383Z,1004.7
2022-12-16T04:08:52.517Z,1004.7
2022-12-16T04:09:56.149Z,1004.7
2022-12-16T04:10:59.551Z,1004.7
2022-12-16T04:12:01.736Z,1004.7
2022-12-16T04:13:03.898Z,1004.7
2022-12-16T04:14:09.063Z,1004.7
2022-12-16T04:15:12.383Z,1004.7
2022-12-16T04:16:15.043Z,1004.8
2022-12-16T04:17:18.506Z,1004.7
2022-12-16T04:18:21.198Z,1004.7
2022-12-16T04:19:24.395Z,1004.8
2022-12-16T04:20:26.262Z,1004.7
2022-12-16T04:21:28.767Z,1004.8
2022-12-16T04:22:31.189Z,1004.8
2022-12-16T04:23:35.597Z,1004.7
2022-12-16T04:24:38.465Z,1004.7
2022-12-16T04:25:41.899Z,1004.8
2022-12-16T04:26:44.433Z,1004.7
2022-12-16T04:27:47.334Z,1004.7
2022-12-16T04:28:50.147Z,1004.8
2022-12-16T04:29:54.243Z,1004.8
2022-12-16T04:30:57.764Z,1004.8
2022-12-16T04:32:01.178Z,1004.8
2022-12-16T04:33:03.726Z,1004.7
2022-12-16T04:34:06.432Z,1004.8
2022-12-16T04:35:09.206Z,1004.7
2022-12-16T04:36:12.531Z,1004.7
2022-12-16T04:37:15.753Z,1004.8
2022-12-16T04:38:18.727Z,1004.8
2022-12-16T04:39:21.862Z,1004.8
2022-12-16T04:40:24.847Z,1004.8
2022-12-16T04:41:27.731Z,1004.8
2022-12-16T04:42:31.429Z,1004.8
2022-12-16T04:43:35.193Z,1004.8
2022-12-16T04:44:39.088Z,1004.8
2022-12-16T04:45:43.414Z,1004.8
2022-12-16T04:46:46.418Z,1004.8
2022-12-16T04:47:57.419Z,1004.8
2022-12-16T04:49:00.634Z,1004.8
2022-12-16T04:50:03.414Z,1004.8
2022-12-16T04:51:06.185Z,1004.8
2022-12-16T04:52:08.894Z,1004.8
2022-12-16T04:53:12.066Z,1004.8
2022-12-16T04:54:14.214Z,1004.8
2022-12-16T04:55:16.726Z,1004.8
2022-12-16T04:56:19.701Z,1004.9
2022-12-16T04:57:22.496Z,1004.8
2022-12-16T04:58:25.186Z,1004.9
2022-12-16T04:59:28.539Z,1004.9
2022-12-16T05:00:31.117Z,1004.9
2022-12-16T05:01:35.663Z,1004.9
2022-12-16T05:02:39.333Z,1004.9
2022-12-16T05:03:43.198Z,1004.9
2022-12-16T05:04:46.324Z,1004.9
2022-12-16T05:05:49.804Z,1004.9
2022-12-16T05:06:52.867Z,1004.9
2022-12-16T05:07:55.646Z,1004.8
2022-12-16T05:08:58.688Z,1004.9
2022-12-16T05:10:01.765Z,1004.9
2022-12-16T05:11:04.846Z,1004.9
2022-12-16T05:12:07.625Z,1004.9
2022-12-16T05:13:11.339Z,1004.9
2022-12-16T05:14:14.079Z,1004.9
2022-12-16T05:15:16.560Z,1004.9
2022-12-16T05:16:19.616Z,1004.9
2022-12-16T05:17:24.005Z,1004.9
2022-12-16T05:18:26.227Z,1004.9
2022-12-16T05:19:32.313Z,1004.9
2022-12-16T05:20:35.284Z,1004.9
2022-12-16T05:21:38.260Z,1005
2022-12-16T05:22:40.684Z,1005
2022-12-16T05:23:42.898Z,1005
2022-12-16T05:24:53.107Z,1005
2022-12-16T05:25:55.776Z,1005
2022-12-16T05:26:58.828Z,1005
2022-12-16T05:28:02.180Z,1005
2022-12-16T05:29:05.445Z,1005
2022-12-16T05:30:07.945Z,1005.1
2022-12-16T05:31:10.783Z,1005.1
2022-12-16T05:32:14.132Z,1005.1
2022-12-16T05:33:18.508Z,1005.2
2022-12-16T05:34:21.484Z,1005.2
2022-12-16T05:35:25.189Z,1005.2
2022-12-16T05:36:27.334Z,1005.2
2022-12-16T05:37:30.830Z,1005.2
2022-12-16T05:38:33.246Z,1005.2
2022-12-16T05:39:36.020Z,1005.2
2022-12-16T05:40:39.736Z,1005.2
2022-12-16T05:41:42.171Z,1005.2
2022-12-16T05:42:45.096Z,1005.3
2022-12-16T05:43:47.899Z,1005.3
2022-12-16T05:44:50.676Z,1005.3
2022-12-16T05:45:53.533Z,1005.3
2022-12-16T05:46:56.845Z,1005.3
2022-12-16T05:48:00.057Z,1005.3
2022-12-16T05:49:04.158Z,1005.3
2022-12-16T05:50:06.933Z,1005.3
2022-12-16T05:51:09.437Z,1005.3
2022-12-16T05:52:12.769Z,1005.3
2022-12-16T05:53:15.011Z,1005.3
2022-12-16T05:54:17.747Z,1005.3
2022-12-16T05:55:20.374Z,1005.4
2022-12-16T05:56:23.065Z,1005.4
2022-12-16T05:57:25.840Z,1005.4
2022-12-16T05:58:28.646Z,1005.4
2022-12-16T05:59:31.137Z,1005.4
2022-12-16T06:00:33.625Z,1005.4
2022-12-16T06:01:36.372Z,1005.5
2022-12-16T06:02:39.969Z,1005.4
2022-12-16T06:03:45.452Z,1005.4
2022-12-16T06:04:49.831Z,1005.5
2022-12-16T06:05:52.607Z,1005.4
2022-12-16T06:06:56.320Z,1005.5
2022-12-16T06:07:59.100Z,1005.5
2022-12-16T06:09:01.535Z,1005.5
2022-12-16T06:10:04.874Z,1005.5
2022-12-16T06:11:08.205Z,1005.5
2022-12-16T06:12:11.628Z,1005.5
2022-12-16T06:13:13.912Z,1005.5
2022-12-16T06:14:16.717Z,1005.5
2022-12-16T06:15:19.864Z,1005.5
2022-12-16T06:16:22.763Z,1005.5
2022-12-16T06:17:25.240Z,1005.5
2022-12-16T06:18:28.315Z,1005.5
2022-12-16T06:19:31.078Z,1005.5
2022-12-16T06:20:35.399Z,1005.5
2022-12-16T06:21:38.522Z,1005.6
2022-12-16T06:22:41.565Z,1005.6
2022-12-16T06:23:44.683Z,1005.6
2022-12-16T06:24:47.541Z,1005.6
2022-12-16T06:25:50.873Z,1005.6
2022-12-16T06:26:53.964Z,1005.7
2022-12-16T06:27:57.033Z,1005.7
2022-12-16T06:28:59.180Z,1005.7
2022-12-16T06:30:02.512Z,1005.7
2022-12-16T06:31:05.083Z,1005.7
2022-12-16T06:32:08.387Z,1005.7
2022-12-16T06:33:11.497Z,1005.7
2022-12-16T06:34:14.576Z,1005.7
2022-12-16T06:35:17.286Z,1005.7
2022-12-16T06:36:21.623Z,1005.7
2022-12-16T06:37:24.674Z,1005.8
2022-12-16T06:38:27.457Z,1005.8
2022-12-16T06:39:30.512Z,1005.9
2022-12-16T06:40:33.101Z,1005.9
2022-12-16T06:41:35.262Z,1005.9
2022-12-16T06:42:38.036Z,1005.9
2022-12-16T06:43:40.258Z,1005.9
2022-12-16T06:44:42.966Z,1005.9
2022-12-16T06:45:45.865Z,1005.9
2022-12-16T06:46:49.445Z,1005.9
2022-12-16T06:47:52.508Z,1005.9
2022-12-16T06:48:55.997Z,1005.9
2022-12-16T06:49:59.152Z,1005.9
2022-12-16T06:51:02.307Z,1006
2022-12-16T06:52:06.418Z,1006
2022-12-16T06:53:09.423Z,1006
2022-12-16T06:54:12.833Z,1006.1
2022-12-16T06:55:15.820Z,1006.1
2022-12-16T06:56:18.871Z,1006.1
2022-12-16T06:57:22.194Z,1006.1
2022-12-16T06:58:24.948Z,1006.1
2022-12-16T06:59:27.717Z,1006.2
2022-12-16T07:00:31.064Z,1006.2
2022-12-16T07:01:34.632Z,1006.2
2022-12-16T07:02:38.836Z,1006.2
2022-12-16T07:03:43.696Z,1006.2
2022-12-16T07:04:46.890Z,1006.2
2022-12-16T07:05:49.607Z,1006.3
2022-12-16T07:06:52.858Z,1006.3
2022-12-16T07:07:57.421Z,1006.3
2022-12-16T07:09:00.480Z,1006.3
2022-12-16T07:10:04.187Z,1006.3
2022-12-16T07:11:17.521Z,1006.4
2022-12-16T07:12:21.156Z,1006.4
2022-12-16T07:13:23.382Z,1006.4
2022-12-16T07:14:25.951Z,1006.4
2022-12-16T07:15:28.168Z,1006.4
2022-12-16T07:16:31.575Z,1006.4
2022-12-16T07:17:35.307Z,1006.4
2022-12-16T07:18:38.184Z,1006.4
2022-12-16T07:19:41.300Z,1006.5
2022-12-16T07:20:44.101Z,1006.5
2022-12-16T07:21:47.274Z,1006.5
2022-12-16T07:23:09.815Z,1006.5
2022-12-16T07:24:23.484Z,1006.5
2022-12-16T07:25:26.607Z,1006.5
2022-12-16T07:26:29.451Z,1006.5
2022-12-16T07:27:32.904Z,1006.5
2022-12-16T07:28:36.299Z,1006.5
2022-12-16T07:29:39.973Z,1006.6
2022-12-16T07:30:43.095Z,1006.6
2022-12-16T07:31:46.331Z,1006.6
2022-12-16T07:32:50.048Z,1006.6
2022-12-16T07:33:52.343Z,1006.7
2022-12-16T07:34:55.590Z,1006.7
2022-12-16T07:35:58.446Z,1006.6
2022-12-16T07:37:01.168Z,1006.7
2022-12-16T07:38:04.513Z,1006.7
2022-12-16T07:39:07.596Z,1006.8
2022-12-16T07:40:12.309Z,1006.7
2022-12-16T07:41:15.151Z,1006.7
2022-12-16T07:42:18.469Z,1006.8
2022-12-16T07:43:21.623Z,1006.8
2022-12-16T07:44:24.953Z,1006.8
2022-12-16T07:45:28.611Z,1006.8
2022-12-16T07:46:31.939Z,1006.9
2022-12-16T07:47:35.100Z,1006.9
2022-12-16T07:48:38.148Z,1006.9
2022-12-16T07:49:41.194Z,1006.9
2022-12-16T07:50:43.700Z,1006.9
2022-12-16T07:51:47.386Z,1007
2022-12-16T07:52:49.604Z,1007
2022-12-16T07:53:56.636Z,1007
2022-12-16T07:55:00.047Z,1007
2022-12-16T07:56:04.531Z,1007
2022-12-16T07:57:07.865Z,1007
2022-12-16T07:58:10.345Z,1007
2022-12-16T07:59:13.392Z,1007.1
2022-12-16T08:00:17.173Z,1007.1
2022-12-16T08:01:20.092Z,1007.1
2022-12-16T08:02:23.535Z,1007.1
2022-12-16T08:03:27.785Z,1007.2
2022-12-16T08:04:31.852Z,1007.2
2022-12-16T08:05:35.074Z,1007.1
2022-12-16T08:06:40.983Z,1007.2
2022-12-16T08:07:43.841Z,1007.1
2022-12-16T08:08:47.601Z,1007.2
2022-12-16T08:09:51.212Z,1007.2
2022-12-16T08:10:55.860Z,1007.2
2022-12-16T08:11:59.759Z,1007.3
2022-12-16T08:13:02.823Z,1007.3
2022-12-16T08:14:05.863Z,1007.2
2022-12-16T08:15:09.060Z,1007.2
2022-12-16T08:16:12.551Z,1007.3
2022-12-16T08:17:15.912Z,1007.3
2022-12-16T08:18:19.300Z,1007.3
2022-12-16T08:19:21.994Z,1007.3
2022-12-16T08:20:25.107Z,1007.3
2022-12-16T08:21:28.999Z,1007.4
2022-12-16T08:22:31.691Z,1007.4
2022-12-16T08:23:35.023Z,1007.4
2022-12-16T08:24:39.785Z,1007.4
2022-12-16T08:25:43.208Z,1007.4
2022-12-16T08:26:46.534Z,1007.4
2022-12-16T08:27:50.742Z,1007.5
2022-12-16T08:28:54.844Z,1007.5
2022-12-16T08:30:47.090Z,1007.5
2022-12-16T08:31:51.105Z,1007.5
2022-12-16T08:33:10.786Z,1007.5
2022-12-16T08:34:22.441Z,1007.5
2022-12-16T08:35:25.860Z,1007.6
2022-12-16T08:36:29.218Z,1007.6
2022-12-16T08:37:31.797Z,1007.6
2022-12-16T08:38:35.437Z,1007.6
2022-12-16T08:39:38.920Z,1007.6
2022-12-16T08:40:42.267Z,1007.6
2022-12-16T08:41:45.312Z,1007.6
2022-12-16T08:42:48.114Z,1007.7
2022-12-16T08:43:52.344Z,1007.7
2022-12-16T08:44:56.890Z,1007.7
2022-12-16T08:45:59.803Z,1007.7
2022-12-16T08:47:03.177Z,1007.7
2022-12-16T08:48:06.270Z,1007.8
2022-12-16T08:49:09.322Z,1007.8
2022-12-16T08:50:11.896Z,1007.8
2022-12-16T08:51:14.395Z,1007.8
2022-12-16T08:52:17.236Z,1007.8
2022-12-16T08:53:20.592Z,1007.8
2022-12-16T08:54:23.741Z,1007.8
2022-12-16T08:55:30.109Z,1007.8
2022-12-16T08:56:33.167Z,1007.8
2022-12-16T08:57:36.579Z,1007.9
2022-12-16T08:58:39.585Z,1007.8
2022-12-16T08:59:43.962Z,1007.9
2022-12-16T09:00:46.660Z,1007.9
2022-12-16T09:01:50.030Z,1007.9
2022-12-16T09:02:58.011Z,1007.9
2022-12-16T09:04:02.907Z,1007.9
2022-12-16T09:05:06.166Z,1007.9
2022-12-16T09:06:09.329Z,1008
2022-12-16T09:07:12.371Z,1007.9
2022-12-16T09:08:15.426Z,1008
2022-12-16T09:09:18.911Z,1008
2022-12-16T09:10:21.680Z,1008
2022-12-16T09:11:24.732Z,1008
2022-12-16T09:12:27.730Z,1008
2022-12-16T09:13:32.223Z,1008
2022-12-16T09:14:37.567Z,1008.1
2022-12-16T09:15:41.935Z,1008.1
2022-12-16T09:16:45.109Z,1008.1
2022-12-16T09:17:47.882Z,1008.1
2022-12-16T09:18:51.144Z,1008.1
2022-12-16T09:19:55.511Z,1008.1
2022-12-16T09:20:58.946Z,1008.1
2022-12-16T09:22:02.006Z,1008.1
2022-12-16T09:23:05.079Z,1008.2
2022-12-16T09:24:08.892Z,1008.1
2022-12-16T09:25:11.464Z,1008.1
2022-12-16T09:26:15.088Z,1008.2
2022-12-16T09:27:18.339Z,1008.2
2022-12-16T09:28:21.425Z,1008.2
2022-12-16T09:29:24.307Z,1008.2
2022-12-16T09:30:27.184Z,1008.2
2022-12-16T09:31:31.637Z,1008.2
2022-12-16T09:32:35.214Z,1008.2
2022-12-16T09:33:38.330Z,1008.2
2022-12-16T09:34:41.008Z,1008.2
2022-12-16T09:35:44.055Z,1008.2
2022-12-16T09:36:47.266Z,1008.2
2022-12-16T09:37:51.515Z,1008.2
2022-12-16T09:38:57.281Z,1008.2
2022-12-16T09:40:00.680Z,1008.2
2022-12-16T09:41:03.781Z,1008.2
2022-12-16T09:42:06.920Z,1008.3
2022-12-16T09:43:10.554Z,1008.3
2022-12-16T09:44:13.363Z,1008.3
2022-12-16T09:45:17.075Z,1008.3
2022-12-16T09:46:19.857Z,1008.3
2022-12-16T09:47:24.752Z,1008.3
2022-12-16T09:48:28.256Z,1008.3
2022-12-16T09:49:31.593Z,1008.3
2022-12-16T09:50:34.094Z,1008.3
2022-12-16T09:51:37.445Z,1008.3
2022-12-16T09:52:40.779Z,1008.4
2022-12-16T09:53:43.914Z,1008.4
2022-12-16T09:54:46.993Z,1008.3
2022-12-16T09:55:49.970Z,1008.4
2022-12-16T09:56:55.804Z,1008.4
2022-12-16T09:57:58.519Z,1008.4
2022-12-16T09:59:01.402Z,1008.4
2022-12-16T10:00:03.619Z,1008.4
2022-12-16T10:01:06.243Z,1008.4
2022-12-16T10:02:09.307Z,1008.4
2022-12-16T10:03:14.623Z,1008.4
2022-12-16T10:04:18.592Z,1008.4
2022-12-16T10:05:22.149Z,1008.4
2022-12-16T10:06:24.573Z,1008.4
2022-12-16T10:07:27.686Z,1008.4
2022-12-16T10:08:30.243Z,1008.4
2022-12-16T10:09:33.491Z,1008.3
2022-12-16T10:10:37.324Z,1008.3
2022-12-16T10:11:40.096Z,1008.3
2022-12-16T10:12:43.425Z,1008.3
2022-12-16T10:13:45.685Z,1008.3
2022-12-16T10:14:48.462Z,1008.3
2022-12-16T10:15:53.031Z,1008.3
2022-12-16T10:16:58.337Z,1008.3
2022-12-16T10:18:01.789Z,1008.3
2022-12-16T10:19:05.962Z,1008.3
2022-12-16T10:20:10.279Z,1008.3
2022-12-16T10:21:13.686Z,1008.3
2022-12-16T10:22:16.918Z,1008.3
2022-12-16T10:23:20.005Z,1008.3
2022-12-16T10:24:22.433Z,1008.3
2022-12-16T10:25:26.082Z,1008.3
2022-12-16T10:26:29.056Z,1008.3
2022-12-16T10:27:31.824Z,1008.4
2022-12-16T10:28:35.183Z,1008.3
2022-12-16T10:29:37.602Z,1008.3
2022-12-16T10:30:40.532Z,1008.3
2022-12-16T10:31:43.786Z,1008.3
2022-12-16T10:32:47.325Z,1008.3
2022-12-16T10:33:50.131Z,1008.3
2022-12-16T10:34:56.224Z,1008.3
2022-12-16T10:36:00.204Z,1008.3
2022-12-16T10:37:13.300Z,1008.3
2022-12-16T10:38:23.510Z,1008.4
2022-12-16T10:39:26.598Z,1008.3
2022-12-16T10:40:28.847Z,1008.3
2022-12-16T10:41:32.218Z,1008.3
2022-12-16T10:42:35.343Z,1008.3
2022-12-16T10:43:39.531Z,1008.4
2022-12-16T10:44:42.033Z,1008.4
2022-12-16T10:45:44.899Z,1008.4
2022-12-16T10:46:48.233Z,1008.4
2022-12-16T10:47:52.195Z,1008.4
2022-12-16T10:48:58.763Z,1008.4
2022-12-16T10:50:03.685Z,1008.5
2022-12-16T10:51:07.336Z,1008.4
2022-12-16T10:52:11.260Z,1008.4
2022-12-16T10:53:14.043Z,1008.5
2022-12-16T10:54:17.498Z,1008.5
2022-12-16T10:55:20.694Z,1008.5
2022-12-16T10:56:24.028Z,1008.5
2022-12-16T10:57:26.725Z,1008.5
2022-12-16T10:58:35.795Z,1008.5
2022-12-16T10:59:38.949Z,1008.4
2022-12-16T11:00:42.017Z,1008.4
2022-12-16T11:01:45.337Z,1008.4
2022-12-16T11:02:49.902Z,1008.4
2022-12-16T11:03:55.107Z,1008.4
2022-12-16T11:04:58.907Z,1008.4
2022-12-16T11:06:03.314Z,1008.4
2022-12-16T11:07:06.096Z,1008.4
2022-12-16T11:08:09.443Z,1008.5
2022-12-16T11:09:12.215Z,1008.4
2022-12-16T11:10:23.210Z,1008.5
2022-12-16T11:11:26.497Z,1008.5
2022-12-16T11:12:29.269Z,1008.5
2022-12-16T11:13:32.861Z,1008.5
2022-12-16T11:14:37.601Z,1008.5
2022-12-16T11:15:42.903Z,1008.4
2022-12-16T11:16:46.509Z,1008.5
2022-12-16T11:17:49.815Z,1008.5
2022-12-16T11:18:53.731Z,1008.5
2022-12-16T11:19:58.518Z,1008.4
2022-12-16T11:21:08.657Z,1008.5
2022-12-16T11:22:20.324Z,1008.5
2022-12-16T11:23:23.027Z,1008.5
2022-12-16T11:24:25.918Z,1008.4
2022-12-16T11:25:28.983Z,1008.4
2022-12-16T11:26:37.960Z,1008.4
2022-12-16T11:27:41.350Z,1008.5
2022-12-16T11:28:44.767Z,1008.5
2022-12-16T11:29:47.470Z,1008.5
2022-12-16T11:30:50.708Z,1008.4
2022-12-16T11:32:01.424Z,1008.5
2022-12-16T11:33:05.251Z,1008.5
2022-12-16T11:34:07.458Z,1008.5
2022-12-16T11:35:11.546Z,1008.5
2022-12-16T11:36:15.539Z,1008.5
2022-12-16T11:37:21.759Z,1008.5
2022-12-16T11:38:25.738Z,1008.5
2022-12-16T11:39:28.822Z,1008.6
2022-12-16T11:40:32.154Z,1008.6
2022-12-16T11:41:34.926Z,1008.6
2022-12-16T11:42:37.979Z,1008.6
2022-12-16T11:43:41.243Z,1008.6
2022-12-16T11:44:44.369Z,1008.6
2022-12-16T11:45:47.781Z,1008.5
2022-12-16T11:46:51.581Z,1008.5
2022-12-16T11:47:58.846Z,1008.5
2022-12-16T11:49:01.775Z,1008.5
2022-12-16T11:50:04.588Z,1008.5
2022-12-16T11:51:07.280Z,1008.5
2022-12-16T11:52:37.088Z,1008.5
2022-12-16T11:53:41.916Z,1008.5
2022-12-16T11:54:45.689Z,1008.5
2022-12-16T11:56:15.904Z,1008.6
2022-12-16T11:57:20.023Z,1008.5
2022-12-16T11:58:22.613Z,1008.5
2022-12-16T11:59:25.871Z,1008.5
2022-12-16T12:00:28.535Z,1008.6
2022-12-16T12:01:32.315Z,1008.6
2022-12-16T12:02:36.058Z,1008.6
2022-12-16T12:03:40.673Z,1008.5
2022-12-16T12:04:44.531Z,1008.6
2022-12-16T12:05:48.666Z,1008.5
2022-12-16T12:06:51.223Z,1008.5
2022-12-16T12:07:56.075Z,1008.5
2022-12-16T12:09:00.252Z,1008.5
2022-12-16T12:10:03.325Z,1008.6
2022-12-16T12:11:06.397Z,1008.5
2022-12-16T12:12:10.599Z,1008.5
2022-12-16T12:13:13.578Z,1008.5
2022-12-16T12:14:16.079Z,1008.6
2022-12-16T12:15:19.131Z,1008.6
2022-12-16T12:16:21.441Z,1008.6
2022-12-16T12:17:25.451Z,1008.6
2022-12-16T12:18:28.529Z,1008.6
2022-12-16T12:19:31.003Z,1008.6
2022-12-16T12:20:33.795Z,1008.6
2022-12-16T12:21:37.620Z,1008.6
2022-12-16T12:22:40.378Z,1008.6
2022-12-16T12:23:43.255Z,1008.6
2022-12-16T12:24:47.704Z,1008.6
2022-12-16T12:26:00.106Z,1008.7
2022-12-16T12:27:02.886Z,1008.6
2022-12-16T12:28:05.612Z,1008.7
2022-12-16T12:29:09.089Z,1008.7
2022-12-16T12:30:16.901Z,1008.6
2022-12-16T12:31:20.679Z,1008.7
2022-12-16T12:32:23.884Z,1008.6
2022-12-16T12:33:27.865Z,1008.7
2022-12-16T12:34:30.949Z,1008.7
2022-12-16T12:35:34.350Z,1008.7
2022-12-16T12:36:38.805Z,1008.7
2022-12-16T12:37:42.181Z,1008.7
2022-12-16T12:38:45.331Z,1008.7
2022-12-16T12:39:48.538Z,1008.7
2022-12-16T12:40:52.376Z,1008.7
2022-12-16T12:41:57.073Z,1008.7
2022-12-16T12:43:00.499Z,1008.7
2022-12-16T12:44:04.068Z,1008.7
2022-12-16T12:45:07.325Z,1008.7
2022-12-16T12:46:11.728Z,1008.7
2022-12-16T12:47:15.056Z,1008.7
2022-12-16T12:48:18.520Z,1008.7
2022-12-16T12:49:21.381Z,1008.8
2022-12-16T12:50:25.020Z,1008.8
2022-12-16T12:51:27.878Z,1008.8
2022-12-16T12:52:30.661Z,1008.8
2022-12-16T12:53:34.902Z,1008.8
2022-12-16T12:54:39.740Z,1008.8
2022-12-16T12:55:43.207Z,1008.8
2022-12-16T12:56:46.993Z,1008.8
2022-12-16T12:57:49.894Z,1008.8
2022-12-16T12:58:57.279Z,1008.8
2022-12-16T13:00:02.985Z,1008.9
2022-12-16T13:01:06.588Z,1008.9
2022-12-16T13:02:10.916Z,1008.9
2022-12-16T13:03:14.583Z,1008.8
2022-12-16T13:04:18.057Z,1008.8
2022-12-16T13:05:25.063Z,1008.8
2022-12-16T13:06:28.317Z,1008.8
2022-12-16T13:07:31.489Z,1008.8
2022-12-16T13:08:34.851Z,1008.8
2022-12-16T13:09:37.658Z,1008.8
2022-12-16T13:10:40.496Z,1008.8
2022-12-16T13:11:44.456Z,1008.8
2022-12-16T13:12:48.396Z,1008.8
2022-12-16T13:13:51.833Z,1008.8
2022-12-16T13:14:57.731Z,1008.8
2022-12-16T13:16:01.326Z,1008.8